Time;durP1;ratioP1;P1;durP2;ratioP2;P2;SDS_P1;SDS_P2;PMS_P1;PMS_P2;Temp;Humidity;BMP_temperature;BMP_pressure;BME280_temperature;BME280_humidity;BME280_pressure;Samples;Min_cycle;Max_cycle;Signal;HPM_P1;HPM_P2
2020/12/02 00:00:16;;;;;;;17.27;11.67;;;;;;;1.19;77.04;101439.25;1727909;81;21220;-85
2020/12/02 00:03:15;;;;;;;14.67;11.03;;;;;;;1.14;77.32;101432.97;1665342;85;21219;-82
2020/12/02 00:05:45;;;;;;;14.87;10.65;;;;;;;1.11;77.09;101435.81;1696403;82;21298;-81
2020/12/02 00:08:30;;;;;;;14.37;11.00;;;;;;;1.19;77.07;101435.31;1651931;85;21180;-82
2020/12/02 00:11:05;;;;;;;16.20;11.63;;;;;;;1.28;76.91;101443.90;1647818;85;21342;-83
2020/12/02 00:13:36;;;;;;;15.80;11.37;;;;;;;1.22;76.89;101447.39;1647589;85;21214;-83
2020/12/02 00:16:04;;;;;;;15.27;11.70;;;;;;;1.14;77.08;101443.95;1643753;85;21230;-84
2020/12/02 00:18:32;;;;;;;15.13;10.40;;;;;;;1.11;77.28;101444.14;1653345;85;21266;-81
2020/12/02 00:20:59;;;;;;;14.20;10.23;;;;;;;0.34;77.14;101312.17;1654605;85;21228;-82
2020/12/02 00:23:27;;;;;;;13.00;10.30;;;;;;;1.26;76.68;101452.36;1647972;84;21165;-81
2020/12/02 00:25:53;;;;;;;17.57;11.57;;;;;;;1.22;76.82;101444.76;1686595;83;21121;-83
2020/12/02 00:28:20;;;;;;;19.50;12.63;;;;;;;1.15;76.99;101441.71;1673653;83;21303;-82
2020/12/02 00:30:48;;;;;;;16.97;11.97;;;;;;;1.09;77.02;101447.34;1681502;82;21610;-82
2020/12/02 00:33:25;;;;;;;18.93;11.60;;;;;;;1.04;77.10;101440.25;1674094;84;21176;-83
2020/12/02 00:35:52;;;;;;;15.88;10.53;;;;;;;1.15;76.89;101445.65;1624125;83;21218;-84
2020/12/02 00:38:20;;;;;;;14.77;10.90;;;;;;;1.18;76.71;101443.28;1593184;87;21375;-83
2020/12/02 00:40:49;;;;;;;15.67;12.30;;;;;;;1.11;76.89;101440.20;1621756;87;21206;-83
2020/12/02 00:43:24;;;;;;;15.37;11.73;;;;;;;1.07;77.04;101442.66;1588207;88;21327;-81
2020/12/02 00:46:02;;;;;;;16.27;12.03;;;;;;;1.02;77.00;101444.73;1629168;87;21233;-74
2020/12/02 00:48:31;;;;;;;13.73;11.27;;;;;;;1.06;76.91;101440.99;1627677;87;21231;-77
2020/12/02 00:50:59;;;;;;;13.97;11.23;;;;;;;1.17;76.71;101439.82;1629165;86;21255;-79
2020/12/02 00:53:31;;;;;;;15.63;11.73;;;;;;;1.16;76.89;101442.89;1628871;85;21227;-89
2020/12/02 00:56:03;;;;;;;17.30;12.87;;;;;;;1.13;76.97;101444.88;1647451;85;21264;-90
2020/12/02 00:58:56;;;;;;;19.33;12.40;;;;;;;1.11;76.97;101448.08;1638532;85;21173;-88
2020/12/02 01:01:41;;;;;;;15.57;11.67;;;;;;;1.03;76.90;101444.64;1621407;87;21205;-88
2020/12/02 01:04:28;;;;;;;16.23;11.20;;;;;;;1.15;76.73;101448.27;1654980;86;21187;-88
2020/12/02 01:06:57;;;;;;;16.33;11.93;;;;;;;1.20;76.62;101439.60;1649792;83;21161;-87
2020/12/02 01:09:30;;;;;;;19.10;11.43;;;;;;;1.15;76.74;101440.39;1651851;84;21206;-89
2020/12/02 01:12:06;;;;;;;;;;;;;;;1.09;76.63;101441.64;1630996;85;21668;-90
2020/12/02 01:14:33;;;;;;;14.03;10.17;;;;;;;1.03;76.89;101438.08;1592615;87;20220;-90
2020/12/02 01:17:10;;;;;;;16.03;11.37;;;;;;;1.07;76.79;101432.16;1639914;86;21229;-90
2020/12/02 01:20:10;;;;;;;13.23;9.30;;;;;;;1.17;76.59;101429.31;1639901;85;21212;-90
2020/12/02 01:23:09;;;;;;;17.23;12.40;;;;;;;1.14;76.66;101431.66;1627671;85;21191;-89
2020/12/02 01:48:33;;;;;;;15.43;9.57;;;;;;;1.00;76.99;101409.41;1763483;79;24382;-80
2020/12/02 01:51:15;;;;;;;15.37;10.03;;;;;;;1.01;77.00;101410.25;1780413;77;22966;-78
2020/12/02 01:53:53;;;;;;;16.27;11.20;;;;;;;0.92;77.10;101416.48;1792673;80;21165;-81
2020/12/02 01:56:52;;;;;;;13.20;9.70;;;;;;;0.90;77.09;101417.02;1787646;79;21093;-86
2020/12/02 01:59:33;;;;;;;14.28;10.75;;;;;;;0.88;76.94;101408.41;1774682;78;21128;-87
2020/12/02 02:02:27;;;;;;;13.73;10.47;;;;;;;1.01;76.68;101404.52;1759986;80;21187;-86
2020/12/02 02:05:17;;;;;;;14.03;10.70;;;;;;;1.10;76.62;101409.65;1757315;80;21177;-86
2020/12/02 02:07:46;;;;;;;16.47;11.53;;;;;;;0.05;76.45;101245.01;1771465;80;21159;-88
2020/12/02 02:10:21;;;;;;;18.50;11.13;;;;;;;0.99;76.31;101409.03;1766478;78;21259;-86
2020/12/02 02:13:16;;;;;;;15.70;10.53;;;;;;;0.90;76.19;101411.77;1768013;80;21097;-86
2020/12/02 02:15:53;;;;;;;19.63;12.03;;;;;;;0.90;75.63;101417.02;1763101;81;21158;-79
2020/12/02 02:18:27;;;;;;;17.55;11.65;;;;;;;0.87;75.36;101405.42;1729383;81;21192;-79
2020/12/02 02:21:09;;;;;;;20.30;12.50;;;;;;;0.74;75.73;101400.11;1729873;81;21626;-80
2020/12/02 02:23:36;;;;;;;16.80;10.93;;;;;;;0.67;76.06;101399.30;1728788;81;21662;-81
2020/12/02 02:26:22;;;;;;;14.37;11.03;;;;;;;0.66;76.04;101406.34;1697261;84;21172;-79
2020/12/02 02:28:54;;;;;;;18.70;11.13;;;;;;;0.78;75.84;101407.33;1718025;82;21338;-79
2020/12/02 02:31:26;;;;;;;14.60;10.97;;;;;;;0.74;75.80;101406.67;1691768;83;21609;-89
2020/12/02 02:33:55;;;;;;;17.07;11.37;;;;;;;0.67;75.94;101405.86;1713176;83;21310;-87
2020/12/02 02:36:26;;;;;;;16.53;12.03;;;;;;;0.61;76.13;101403.16;1667412;82;21100;-87
2020/12/02 02:38:53;;;;;;;13.43;10.10;;;;;;;0.63;76.28;101406.52;1647349;86;21347;-89
2020/12/02 02:41:27;;;;;;;14.77;11.50;;;;;;;0.78;76.18;101410.78;1635969;86;21194;-88
2020/12/02 02:44:02;;;;;;;16.90;11.13;;;;;;;0.81;75.97;101409.77;1664537;85;21182;-87
2020/12/02 02:46:30;;;;;;;17.63;11.53;;;;;;;0.75;76.19;101414.07;1661655;85;21309;-88
2020/12/02 02:49:08;;;;;;;18.60;12.77;;;;;;;0.69;76.40;101419.72;1637487;86;21222;-87
2020/12/02 02:51:41;;;;;;;18.50;11.27;;;;;;;0.64;75.80;101411.29;1598243;86;21706;-83
2020/12/02 02:54:08;;;;;;;15.67;12.53;;;;;;;0.74;75.49;101413.72;1632903;86;21636;-83
2020/12/02 02:56:35;;;;;;;19.47;13.50;;;;;;;0.73;75.48;101416.79;1641880;86;21183;-87
2020/12/02 02:59:03;;;;;;;22.17;13.10;;;;;;;0.67;75.53;101421.60;1617067;87;21356;-85
2020/12/02 03:01:33;;;;;;;21.90;12.77;;;;;;;0.61;75.44;101418.06;1656949;85;21213;-85
2020/12/02 03:04:03;;;;;;;22.47;14.93;;;;;;;0.57;75.47;101430.05;1632972;86;21179;-85
2020/12/02 03:06:30;;;;;;;23.80;14.47;;;;;;;0.68;75.16;101424.58;1621302;86;22153;-85
2020/12/02 03:08:57;;;;;;;23.57;14.37;;;;;;;0.66;74.79;101427.33;1638344;86;21192;-84
2020/12/02 03:11:24;;;;;;;23.77;13.33;;;;;;;0.55;75.00;101421.92;1622829;87;21777;-78
2020/12/02 03:13:51;;;;;;;;;;;;;;;0.47;75.05;101434.20;1598715;89;21689;-79
2020/12/02 03:16:29;;;;;;;26.02;14.23;;;;;;;0.43;75.00;101428.75;1618935;87;20192;-79
2020/12/02 03:19:00;;;;;;;25.23;14.43;;;;;;;0.48;74.86;101427.17;1616667;87;21206;-78
2020/12/02 03:21:27;;;;;;;22.37;16.53;;;;;;;0.39;75.07;101429.89;1625947;87;21187;-80
2020/12/02 03:23:53;;;;;;;;;;;;;;;0.31;74.96;101421.66;1628115;87;21191;-81
2020/12/02 03:26:20;;;;;;;25.23;14.43;;;;;;;0.25;75.07;101424.67;1618916;87;20288;-79
2020/12/02 03:28:47;;;;;;;26.13;15.33;;;;;;;0.30;74.96;101427.84;1623192;87;21594;-78
2020/12/02 03:31:18;;;;;;;18.87;12.83;;;;;;;0.34;74.50;101416.21;1625735;87;21730;-77
2020/12/02 03:33:45;;;;;;;26.00;15.37;;;;;;;0.27;74.79;101426.25;1616336;86;21237;-79
2020/12/02 03:38:46;;;;;;;25.10;14.97;;;;;;;0.28;74.67;101422.68;1759897;79;22880;-78
2020/12/02 03:41:13;;;;;;;24.93;14.53;;;;;;;0.25;74.59;101419.44;1737741;80;22262;-79
2020/12/02 03:43:40;;;;;;;23.37;15.13;;;;;;;0.19;74.67;101418.86;1723736;82;21200;-82
2020/12/02 03:46:09;;;;;;;24.33;14.97;;;;;;;0.17;74.77;101420.74;1737137;80;21190;-78
2020/12/02 03:48:36;;;;;;;21.70;14.27;;;;;;;0.30;74.42;101416.03;1729032;82;21342;-80
2020/12/02 03:51:04;;;;;;;20.60;13.07;;;;;;;0.30;74.48;101409.48;1725682;82;21160;-80
2020/12/02 03:53:31;;;;;;;22.67;14.97;;;;;;;0.25;74.64;101418.95;1739283;82;21145;-80
2020/12/02 03:56:00;;;;;;;25.30;14.57;;;;;;;0.23;74.66;101422.14;1731453;82;21156;-80
2020/12/02 03:58:26;;;;;;;21.70;13.93;;;;;;;0.27;74.51;101416.24;1735918;80;21666;-81
2020/12/02 04:00:55;;;;;;;24.53;15.27;;;;;;;0.27;74.31;101418.86;1726613;80;21663;-82
2020/12/02 04:03:24;;;;;;;24.53;15.40;;;;;;;0.29;74.16;101416.98;1724153;80;21832;-79
2020/12/02 04:05:51;;;;;;;26.70;14.10;;;;;;;0.28;74.12;101424.47;1698834;80;21182;-79
2020/12/02 04:08:19;;;;;;;24.47;14.53;;;;;;;0.29;74.05;101415.67;1653332;85;21329;-77
2020/12/02 04:10:46;;;;;;;;;;;;;;;0.39;73.69;101418.92;1655874;82;21206;-80
2020/12/02 04:13:14;;;;;;;21.30;13.97;;;;;;;0.37;73.92;101425.21;1644095;87;20203;-78
2020/12/02 04:15:42;;;;;;;22.20;15.23;;;;;;;0.28;74.10;101423.16;1640656;85;21218;-81
2020/12/02 04:18:09;;;;;;;26.23;15.87;;;;;;;0.27;74.31;101431.98;1651249;85;21692;-79
2020/12/02 04:20:36;;;;;;;28.30;15.80;;;;;;;0.32;74.14;101435.14;1655933;85;21214;-78
2020/12/02 04:23:03;;;;;;;22.47;14.17;;;;;;;0.31;73.89;101425.60;1647987;85;21196;-79
2020/12/02 04:25:29;;;;;;;;;;;;;;;0.30;74.02;101430.02;1651843;85;21198;-78
2020/12/02 04:27:56;;;;;;;23.83;14.87;;;;;;;0.39;73.83;101432.52;1641981;85;20213;-79
2020/12/02 04:30:23;;;;;;;27.63;16.30;;;;;;;0.32;73.80;101436.00;1648317;85;21606;-78
2020/12/02 04:32:52;;;;;;;19.60;13.60;;;;;;;0.25;74.05;101424.67;1653770;86;21341;-77
2020/12/02 04:35:19;;;;;;;25.80;15.50;;;;;;;0.21;74.36;101429.70;1653316;84;21215;-79
2020/12/02 04:37:46;;;;;;;19.97;13.03;;;;;;;0.24;74.34;101427.75;1671452;85;21383;-79
2020/12/02 04:40:24;;;;;;;21.67;13.30;;;;;;;0.23;74.16;101429.14;1667756;84;21173;-79
2020/12/02 04:42:57;;;;;;;22.83;14.07;;;;;;;0.24;74.32;101428.22;1668190;85;21619;-78
2020/12/02 04:45:29;;;;;;;23.93;13.93;;;;;;;0.29;74.15;101426.16;1670107;84;21568;-81
2020/12/02 04:48:08;;;;;;;23.97;14.60;;;;;;;0.24;74.40;101425.60;1666110;84;21276;-81
2020/12/02 04:50:38;;;;;;;21.50;14.47;;;;;;;0.18;74.51;101425.51;1670804;84;21202;-78
2020/12/02 04:53:23;;;;;;;21.80;12.73;;;;;;;0.18;74.56;101419.79;1661964;83;21692;-80
2020/12/02 04:55:54;;;;;;;24.83;13.17;;;;;;;0.14;74.75;101418.77;1667765;84;21340;-79
2020/12/02 04:58:40;;;;;;;21.33;14.57;;;;;;;0.14;74.90;101422.70;1653504;84;21486;-79
2020/12/02 05:01:30;;;;;;;19.47;13.67;;;;;;;0.10;75.06;101418.12;1658015;84;21260;-80
2020/12/02 05:04:02;;;;;;;20.30;12.57;;;;;;;0.12;75.01;101418.03;1656874;85;22395;-79
2020/12/02 05:06:45;;;;;;;16.30;11.07;;;;;;;0.10;75.26;101421.22;1652447;84;21122;-81
2020/12/02 05:09:24;;;;;;;15.70;11.47;;;;;;;0.24;74.97;101424.29;1640342;85;21209;-79
2020/12/02 05:12:05;;;;;;;19.03;12.17;;;;;;;0.20;74.77;101419.70;1651466;85;21198;-78
2020/12/02 05:14:41;;;;;;;14.73;10.30;;;;;;;0.08;75.07;101417.38;1633858;85;21242;-79
2020/12/02 05:17:28;;;;;;;17.00;11.80;;;;;;;0.01;75.20;101430.95;1648332;85;21230;-79
2020/12/02 05:20:16;;;;;;;15.07;11.17;;;;;;;0.02;75.28;101424.30;1637229;86;21186;-81
2020/12/02 05:22:48;;;;;;;15.60;11.10;;;;;;;-0.03;75.52;101427.19;1631883;86;21197;-81
2020/12/02 05:25:23;;;;;;;20.23;12.80;;;;;;;0.01;75.36;101426.54;1640556;86;21515;-80
2020/12/02 05:28:11;;;;;;;15.70;10.20;;;;;;;0.01;75.63;101430.95;1648004;85;21332;-81
2020/12/02 05:30:38;;;;;;;16.37;10.87;;;;;;;0.14;75.39;101428.78;1633397;86;21210;-81
2020/12/02 05:33:16;;;;;;;16.20;11.40;;;;;;;0.11;75.27;101434.20;1640192;85;21375;-83
2020/12/02 05:35:49;;;;;;;16.03;10.43;;;;;;;0.04;75.38;101431.61;1641446;83;21097;-81
2020/12/02 05:38:29;;;;;;;15.17;10.53;;;;;;;0.08;75.48;101435.72;1682807;83;21187;-81
2020/12/02 05:41:13;;;;;;;16.83;10.30;;;;;;;0.23;75.06;101427.39;1817375;78;24419;-82
2020/12/02 05:43:54;;;;;;;17.70;11.77;;;;;;;0.14;75.25;101439.27;1789591;80;21192;-83
2020/12/02 05:46:42;;;;;;;16.70;9.93;;;;;;;0.11;75.26;101441.23;1698378;83;21184;-81
2020/12/02 05:49:12;;;;;;;13.93;10.27;;;;;;;0.13;75.21;101438.92;1718682;83;21164;-83
2020/12/02 05:51:41;;;;;;;13.13;10.13;;;;;;;0.26;74.65;101443.39;1718474;81;21153;-79
2020/12/02 05:54:12;;;;;;;15.10;10.97;;;;;;;0.19;74.68;101439.84;1733639;82;21875;-81
2020/12/02 05:56:39;;;;;;;16.47;11.53;;;;;;;0.12;74.87;101445.08;1722390;82;21181;-80
2020/12/02 05:59:06;;;;;;;16.97;11.47;;;;;;;0.09;74.76;101441.33;1754496;81;21212;-81
2020/12/02 06:01:35;;;;;;;13.50;10.77;;;;;;;0.11;74.71;101442.07;1713876;81;21205;-80
2020/12/02 06:04:02;;;;;;;15.87;10.97;;;;;;;0.09;74.65;101456.22;1717545;82;21165;-82
2020/12/02 06:06:31;;;;;;;12.50;8.50;;;;;;;0.10;74.55;101448.27;1737772;80;21065;-84
2020/12/02 06:09:00;;;;;;;17.10;11.70;;;;;;;0.04;74.89;101450.41;1733823;81;21347;-81
2020/12/02 06:11:41;;;;;;;19.83;13.23;;;;;;;0.03;74.97;101460.53;1691763;84;21336;-83
2020/12/02 06:14:32;;;;;;;17.93;12.10;;;;;;;0.07;75.11;101453.69;1829284;77;23214;-82
2020/12/02 06:16:59;;;;;;;17.70;11.23;;;;;;;0.10;74.99;101459.23;1811727;77;21300;-82
2020/12/02 06:19:44;;;;;;;18.73;12.17;;;;;;;0.06;75.03;101460.33;1796291;78;21173;-82
2020/12/02 06:22:11;;;;;;;16.93;11.70;;;;;;;0.01;75.03;101454.54;1821150;78;21158;-83
2020/12/02 06:24:47;;;;;;;19.40;12.77;;;;;;;0.04;75.00;101455.20;1810735;78;21319;-85
2020/12/02 06:27:19;;;;;;;16.27;12.27;;;;;;;-0.01;75.08;101459.87;1804622;78;21532;-84
2020/12/02 06:30:12;;;;;;;19.13;12.17;;;;;;;0.04;74.93;101457.83;1823357;78;21284;-86
2020/12/02 06:36:32;;;;;;;16.07;10.83;;;;;;;0.19;74.78;101456.05;1765297;78;23440;-80
2020/12/02 06:39:14;;;;;;;17.10;11.83;;;;;;;0.10;74.90;101462.69;1684516;83;21339;-81
2020/12/02 06:41:43;;;;;;;16.33;11.00;;;;;;;-0.08;75.13;101440.20;1675834;84;21217;-81
2020/12/02 06:44:36;;;;;;;18.57;12.27;;;;;;;0.04;75.03;101452.58;1685479;83;21212;-81
2020/12/02 06:47:23;;;;;;;18.37;12.27;;;;;;;0.05;75.06;101448.17;1669330;83;21405;-81
2020/12/02 06:49:52;;;;;;;18.03;10.83;;;;;;;0.06;75.21;101457.70;1681394;83;21187;-78
2020/12/02 06:52:42;;;;;;;;;;;;;;;;;;;;;
2020/12/02 06:55:28;;;;;;;19.87;16.32;;;;;;;0.17;75.28;101463.14;1788693;77;39174;-79
2020/12/02 06:58:02;;;;;;;17.77;13.87;;;;;;;0.30;74.83;101467.17;1748972;81;21184;-81
2020/12/02 07:00:41;;;;;;;16.30;12.03;;;;;;;0.48;73.99;101464.73;1744876;80;21381;-80
2020/12/02 07:03:46;;;;;;;18.77;12.63;;;;;;;0.49;73.64;101466.44;1734632;81;21194;-79
2020/12/02 07:06:35;;;;;;;19.40;12.33;;;;;;;0.39;73.97;101463.51;1675416;81;21139;-78
2020/12/02 07:09:14;;;;;;;18.87;13.07;;;;;;;0.31;74.13;101464.94;1689187;82;21303;-83
2020/12/02 07:12:06;;;;;;;21.80;12.87;;;;;;;0.31;74.04;101455.28;1732069;81;21234;-80
2020/12/02 07:14:38;;;;;;;12.70;9.23;;;;;;;0.29;74.07;101458.95;1721873;82;21224;-78
2020/12/02 07:17:09;;;;;;;20.30;13.17;;;;;;;0.25;73.84;101464.02;1711577;82;21176;-79
2020/12/02 07:19:43;;;;;;;24.83;14.93;;;;;;;0.17;74.21;101456.14;1712958;83;21373;-81
2020/12/02 07:22:16;;;;;;;17.50;11.97;;;;;;;0.26;74.17;101455.19;1709342;82;21210;-79
2020/12/02 07:25:11;;;;;;;20.90;13.33;;;;;;;0.25;74.02;101452.21;1795507;78;23155;-80
2020/12/02 07:27:42;;;;;;;23.47;13.50;;;;;;;0.11;74.47;101458.28;1729549;81;21198;-80
2020/12/02 07:30:35;;;;;;;22.37;15.23;;;;;;;0.12;74.72;101459.98;1705748;82;21734;-82
2020/12/02 07:33:19;;;;;;;21.43;14.80;;;;;;;0.27;74.46;101450.33;1714262;83;21196;-81
2020/12/02 07:35:48;;;;;;;17.60;13.13;;;;;;;0.25;74.46;101456.98;1698204;82;21153;-80
2020/12/02 07:38:16;;;;;;;19.23;13.27;;;;;;;0.19;74.68;101466.54;1679867;83;21209;-81
2020/12/02 07:40:44;;;;;;;19.63;14.37;;;;;;;0.17;74.75;101468.38;1678068;84;21703;-81
2020/12/02 07:43:27;;;;;;;21.97;14.60;;;;;;;0.17;74.53;101456.14;1680675;84;21222;-82
2020/12/02 07:45:55;;;;;;;20.53;14.00;;;;;;;0.21;74.48;101463.80;1680068;84;22204;-81
2020/12/02 07:48:25;;;;;;;23.10;14.73;;;;;;;0.14;74.38;101455.00;1685998;83;21226;-80
2020/12/02 07:51:01;;;;;;;19.47;13.73;;;;;;;0.22;74.40;101468.13;1661036;86;21199;-82
2020/12/02 07:54:03;;;;;;;21.30;12.47;;;;;;;0.31;74.33;101461.00;1820864;78;23521;-83
2020/12/02 07:56:35;;;;;;;20.53;13.97;;;;;;;0.27;74.20;101469.53;1796888;78;21200;-80
2020/12/02 07:59:22;;;;;;;19.83;12.37;;;;;;;0.37;74.06;101465.86;1795761;78;21176;-81
2020/12/02 08:02:01;;;;;;;19.57;13.83;;;;;;;0.38;74.19;101467.09;1806262;78;21630;-82
2020/12/02 08:04:41;;;;;;;20.47;13.33;;;;;;;0.33;74.47;101461.75;1816875;78;21179;-85
2020/12/02 08:07:12;;;;;;;21.90;12.63;;;;;;;0.31;74.34;101458.38;1728120;81;21189;-80
2020/12/02 08:09:44;;;;;;;18.70;11.80;;;;;;;0.38;74.10;101454.45;1764764;81;21590;-82
2020/12/02 08:12:15;;;;;;;20.67;13.83;;;;;;;0.50;73.86;101459.40;1735696;82;21260;-81
2020/12/02 08:14:51;;;;;;;24.30;15.10;;;;;;;0.47;73.92;101459.12;1742835;81;21614;-79
2020/12/02 08:17:22;;;;;;;20.53;14.40;;;;;;;0.41;73.92;101468.67;1739139;81;21169;-80
2020/12/02 08:19:52;;;;;;;19.93;14.03;;;;;;;0.35;73.96;101459.40;1733819;81;21133;-82
2020/12/02 08:22:40;;;;;;;19.53;14.30;;;;;;;0.30;74.17;101461.48;1717700;83;22061;-80
2020/12/02 08:25:25;;;;;;;23.22;14.55;;;;;;;0.31;74.00;101456.59;1718055;83;21187;-80
2020/12/02 08:27:57;;;;;;;20.47;13.07;;;;;;;0.23;74.16;101462.79;1718479;82;21174;-82
2020/12/02 08:30:29;;;;;;;23.07;14.23;;;;;;;0.23;74.15;101450.98;1723175;82;21275;-80
2020/12/02 08:33:05;;;;;;;20.87;13.50;;;;;;;0.23;74.27;101457.55;1731599;81;21167;-83
2020/12/02 08:35:40;;;;;;;20.27;14.80;;;;;;;0.34;73.96;101449.00;1708732;81;21567;-77
2020/12/02 08:38:29;;;;;;;24.65;15.75;;;;;;;0.39;74.09;101452.19;1660473;84;21236;-79
2020/12/02 08:40:59;;;;;;;23.03;14.77;;;;;;;0.34;73.96;101449.86;1668668;84;21808;-81
2020/12/02 08:43:35;;;;;;;23.67;17.03;;;;;;;0.23;74.27;101443.56;1671726;84;21406;-83
2020/12/02 08:46:18;;;;;;;23.52;15.88;;;;;;;0.24;74.65;101447.89;1681176;84;21227;-83
2020/12/02 08:48:49;;;;;;;27.27;17.83;;;;;;;0.26;74.70;101440.77;1670591;84;21236;-82
2020/12/02 08:51:20;;;;;;;22.63;14.43;;;;;;;0.30;74.30;101438.33;1659050;84;21938;-82
2020/12/02 08:53:47;;;;;;;22.70;16.37;;;;;;;0.28;74.46;101440.20;1654105;85;22015;-81
2020/12/02 08:56:34;;;;;;;22.60;14.77;;;;;;;0.41;74.35;101441.13;1676938;84;21217;-82
2020/12/02 08:59:07;;;;;;;27.97;16.77;;;;;;;0.47;74.31;101437.28;1670659;84;21184;-80
2020/12/02 09:01:34;;;;;;;23.20;15.63;;;;;;;0.47;74.42;101441.21;1672247;84;21718;-83
2020/12/02 09:04:01;;;;;;;25.80;17.67;;;;;;;0.47;74.46;101433.34;1632087;85;21246;-81
2020/12/02 09:06:28;;;;;;;16.87;12.47;;;;;;;0.53;74.28;101433.81;1644829;85;22222;-82
2020/12/02 09:08:55;;;;;;;20.40;14.83;;;;;;;0.62;73.97;101431.54;1660319;84;21248;-82
2020/12/02 09:11:32;;;;;;;19.57;13.87;;;;;;;0.61;74.00;101425.94;1665634;84;21326;-82
2020/12/02 09:14:02;;;;;;;21.73;14.60;;;;;;;0.68;73.77;101426.76;1693746;82;21614;-82
2020/12/02 09:16:38;;;;;;;20.40;14.80;;;;;;;0.72;73.96;101426.09;1666071;84;21223;-84
2020/12/02 09:19:07;;;;;;;20.63;15.27;;;;;;;0.77;73.85;101423.55;1659480;84;21222;-81
2020/12/02 09:21:34;;;;;;;21.87;15.83;;;;;;;0.71;74.09;101425.23;1671389;84;21243;-83
2020/12/02 09:24:01;;;;;;;20.87;14.67;;;;;;;0.81;73.59;101423.34;1679906;84;21357;-81
2020/12/02 09:26:33;;;;;;;21.53;15.73;;;;;;;0.83;73.51;101424.08;1655865;84;21201;-80
2020/12/02 09:29:02;;;;;;;22.10;14.73;;;;;;;0.79;73.67;101419.48;1662308;84;21361;-82
2020/12/02 09:31:31;;;;;;;19.97;14.83;;;;;;;0.80;73.81;101419.05;1655750;84;21370;-80
2020/12/02 09:33:58;;;;;;;21.00;14.73;;;;;;;0.78;73.95;101414.72;1666851;85;21987;-82
2020/12/02 09:36:25;;;;;;;21.30;14.23;;;;;;;0.87;73.74;101418.55;1678426;83;21613;-81
2020/12/02 09:38:53;;;;;;;20.97;15.70;;;;;;;0.85;73.58;101412.55;1680344;84;21200;-83
2020/12/02 09:41:50;;;;;;;23.40;15.30;;;;;;;0.91;73.47;101410.84;1674217;84;21330;-81
2020/12/02 09:44:40;;;;;;;19.60;15.97;;;;;;;1.02;73.06;101411.91;1666686;84;21268;-81
2020/12/02 09:47:12;;;;;;;24.70;16.87;;;;;;;0.96;72.87;101406.14;1669363;84;21565;-81
2020/12/02 09:49:41;;;;;;;20.97;14.73;;;;;;;0.92;73.06;101403.35;1675892;84;21271;-82
2020/12/02 09:52:15;;;;;;;21.03;16.07;;;;;;;0.93;72.99;101409.44;1636997;85;21231;-83
2020/12/02 09:54:44;;;;;;;25.37;16.50;;;;;;;1.06;72.57;101414.73;1657981;84;21811;-79
2020/12/02 09:57:25;;;;;;;18.77;13.67;;;;;;;1.12;72.41;101405.97;1671617;84;21703;-83
2020/12/02 09:59:55;;;;;;;23.10;16.30;;;;;;;1.00;71.76;101411.17;1674412;84;21232;-81
2020/12/02 10:02:40;;;;;;;23.53;15.87;;;;;;;0.80;72.22;101404.13;1648368;85;21354;-82
2020/12/02 10:05:37;;;;;;;24.60;17.03;;;;;;;0.68;72.91;101412.77;1668913;84;21210;-83
2020/12/02 10:08:36;;;;;;;20.30;15.40;;;;;;;0.76;72.89;101411.83;1722196;82;21176;-82
2020/12/02 10:11:16;;;;;;;;;;;;;;;0.73;72.37;101404.14;1723518;82;21180;-82
2020/12/02 10:14:14;;;;;;;28.17;20.13;;;;;;;0.65;72.89;101406.42;1715636;83;20180;-80
2020/12/02 10:17:10;;;;;;;24.80;17.73;;;;;;;0.60;73.28;101405.88;1692106;83;21228;-81
2020/12/02 10:20:18;;;;;;;26.43;18.23;;;;;;;0.73;73.21;101401.52;1807744;78;24958;-83
2020/12/02 10:23:16;;;;;;;31.60;20.87;;;;;;;0.75;73.22;101403.58;1719097;82;21158;-82
2020/12/02 10:26:17;;;;;;;30.53;18.73;;;;;;;0.78;73.14;101406.02;1712425;82;21310;-84
2020/12/02 10:29:12;;;;;;;32.83;21.30;;;;;;;0.65;72.65;101403.80;1721451;82;21144;-81
2020/12/02 10:31:55;;;;;;;31.50;20.00;;;;;;;0.57;72.76;101405.61;1691466;82;21682;-82
2020/12/02 10:34:30;;;;;;;29.57;19.23;;;;;;;0.52;73.05;101407.19;1721055;82;21630;-82
2020/12/02 10:37:14;;;;;;;32.37;23.70;;;;;;;0.61;73.27;101399.70;1684251;84;21140;-83
2020/12/02 10:39:41;;;;;;;29.07;20.10;;;;;;;0.65;73.36;101398.56;1672609;83;22194;-82
2020/12/02 10:42:42;;;;;;;32.13;22.43;;;;;;;0.75;73.18;101408.38;1682335;83;21199;-84
2020/12/02 10:45:14;;;;;;;24.93;19.00;;;;;;;0.79;73.17;101408.99;1658371;85;21164;-82
2020/12/02 10:48:12;;;;;;;29.53;19.07;;;;;;;0.85;73.13;101407.30;1659491;80;21368;-82
2020/12/02 10:50:54;;;;;;;;;;;;;;;;;;;;;
2020/12/02 10:53:25;;;;;;;32.73;20.63;;;;;;;0.99;72.26;101393.27;1810366;78;24332;-83
2020/12/02 10:55:54;;;;;;;34.03;22.83;;;;;;;0.91;72.45;101404.75;1778892;79;21148;-84
2020/12/02 10:58:28;;;;;;;47.07;23.70;;;;;;;0.85;72.71;101407.30;1779093;80;21195;-82
2020/12/02 11:00:59;;;;;;;49.20;23.13;;;;;;;0.86;73.09;101402.41;1777193;80;21144;-84
2020/12/02 11:03:32;;;;;;;58.83;25.40;;;;;;;0.87;72.95;101401.48;1720289;82;21143;-80
2020/12/02 11:06:22;;;;;;;43.30;22.80;;;;;;;0.94;72.68;101407.16;1700982;81;21081;-81
2020/12/02 11:09:02;;;;;;;36.43;21.50;;;;;;;0.93;72.33;101405.02;1674866;85;21207;-80
2020/12/02 11:12:20;;;;;;;31.27;19.37;;;;;;;0.93;71.89;101405.02;1671550;85;21162;-82
2020/12/02 11:15:28;;;;;;;35.10;22.13;;;;;;;0.93;72.17;101404.18;1670904;85;21151;-81
2020/12/02 11:18:15;;;;;;;40.43;17.57;;;;;;;0.98;72.34;101403.42;1673739;85;21231;-82
2020/12/02 11:21:26;;;;;;;42.70;21.37;;;;;;;0.92;71.94;101394.61;1670917;85;21206;-80
2020/12/02 11:24:37;;;;;;;36.15;22.98;;;;;;;0.92;71.96;101391.53;1673723;85;21165;-83
2020/12/02 11:27:05;;;;;;;29.20;18.00;;;;;;;0.83;72.36;101384.26;1671526;85;21314;-86
2020/12/02 11:29:33;;;;;;;39.00;22.97;;;;;;;0.78;72.89;101387.64;1696273;83;21252;-83
2020/12/02 11:32:15;;;;;;;28.77;19.00;;;;;;;0.78;73.03;101391.58;1674842;84;21749;-82
2020/12/02 11:35:24;;;;;;;28.13;19.10;;;;;;;0.86;73.07;101392.39;1673055;84;21349;-85
2020/12/02 11:38:07;;;;;;;;;;;;;;;0.87;73.25;101392.78;1688432;83;21701;-82
2020/12/02 11:40:51;;;;;;;35.10;20.23;;;;;;;0.92;73.23;101393.30;1673553;85;20290;-82
2020/12/02 11:43:51;;;;;;;33.20;20.53;;;;;;;0.93;73.48;101381.87;1755726;79;22991;-83
2020/12/02 11:46:18;;;;;;;35.63;23.67;;;;;;;1.04;73.29;101390.36;1764908;80;21192;-83
2020/12/02 11:49:04;;;;;;;38.07;23.77;;;;;;;1.10;73.05;101388.64;1768645;80;21191;-82
2020/12/02 11:51:49;;;;;;;41.27;26.20;;;;;;;1.07;73.01;101390.97;1787136;79;21180;-83
2020/12/02 11:54:15;;;;;;;38.03;24.67;;;;;;;0.47;73.13;101303.49;1766786;79;21195;-81
2020/12/02 11:56:47;;;;;;;48.60;26.43;;;;;;;0.91;73.55;101385.90;1756669;80;21192;-82
2020/12/02 11:59:20;;;;;;;45.80;26.53;;;;;;;0.88;73.47;101387.41;1752838;79;21631;-82
2020/12/02 12:02:31;;;;;;;46.80;27.03;;;;;;;1.03;73.26;101383.41;1816612;77;22423;-81
2020/12/02 12:05:25;;;;;;;40.30;24.63;;;;;;;0.97;73.50;101380.72;1742168;80;21346;-81
2020/12/02 12:08:07;;;;;;;47.43;27.77;;;;;;;0.96;73.91;101386.90;1730628;80;21312;-83
2020/12/02 12:10:49;;;;;;;49.40;29.90;;;;;;;0.95;73.57;101378.19;1737926;80;21502;-82
2020/12/02 12:13:41;;;;;;;57.80;30.40;;;;;;;0.93;73.71;101380.08;1740116;80;21665;-80
2020/12/02 12:16:42;;;;;;;55.10;30.43;;;;;;;0.94;73.67;101375.21;1747246;81;21185;-82
2020/12/02 12:19:49;;;;;;;48.67;28.57;;;;;;;0.93;73.84;101377.45;1742764;81;21349;-83
2020/12/02 12:22:51;;;;;;;54.87;29.33;;;;;;;1.10;73.59;101376.83;1733652;80;21199;-83
2020/12/02 12:25:39;;;;;;;37.00;21.30;;;;;;;1.18;73.54;101374.52;1790792;79;22936;-81
2020/12/02 12:28:14;;;;;;;56.33;29.90;;;;;;;1.09;73.56;101380.38;1774706;79;21176;-82
2020/12/02 12:30:43;;;;;;;;;;;;;;;1.00;73.73;101379.66;1772458;79;21159;-84
2020/12/02 12:33:21;;;;;;;68.57;30.73;;;;;;;0.92;73.94;101377.55;1775740;79;20237;-83
2020/12/02 12:35:52;;;;;;;54.17;28.13;;;;;;;1.01;73.89;101377.42;1774641;80;21115;-81